Time;durP1;ratioP1;P1;durP2;ratioP2;P2;SDS_P1;SDS_P2;PMS_P1;PMS_P2;Temp;Humidity;BMP_temperature;BMP_pressure;BME280_temperature;BME280_humidity;BME280_pressure;Samples;Min_cycle;Max_cycle;Signal;HPM_P1;HPM_P2
2023/05/19 00:01:21;;;;;;;15.87;14.87;;;12.00;1.00;;;;;;4838353;29;20469;-48
2023/05/19 00:03:56;;;;;;;17.10;15.93;;;12.00;1.00;;;;;;4836465;29;20484;-50
2023/05/19 00:06:26;;;;;;;16.20;15.07;;;12.00;1.00;;;;;;4837724;29;20277;-55
2023/05/19 00:09:08;;;;;;;16.10;15.00;;;12.00;1.00;;;;;;4838302;29;20430;-50
2023/05/19 00:11:35;;;;;;;15.17;14.20;;;11.90;1.00;;;;;;4838050;29;20429;-50
2023/05/19 00:14:01;;;;;;;15.93;14.87;;;11.90;1.00;;;;;;4837978;29;20481;-50
2023/05/19 00:16:28;;;;;;;15.97;15.00;;;11.90;1.00;;;;;;4842646;29;20433;-47
2023/05/19 00:18:55;;;;;;;16.40;15.20;;;11.90;1.00;;;;;;4841552;29;20644;-54
2023/05/19 00:21:21;;;;;;;16.30;15.27;;;11.80;1.00;;;;;;4839835;29;20929;-54
2023/05/19 00:23:47;;;;;;;16.40;15.40;;;11.80;1.00;;;;;;4842051;29;20429;-51
2023/05/19 00:26:12;;;;;;;15.97;14.97;;;11.70;1.00;;;;;;4842361;29;20197;-50
2023/05/19 00:28:38;;;;;;;15.10;14.20;;;11.70;1.00;;;;;;4840233;29;20694;-52
2023/05/19 00:31:04;;;;;;;16.43;15.17;;;11.60;1.00;;;;;;4840567;29;20272;-51
2023/05/19 00:33:32;;;;;;;16.30;15.07;;;11.50;1.00;;;;;;4840573;29;20551;-52
2023/05/19 00:35:58;;;;;;;16.40;15.30;;;11.40;1.00;;;;;;4840737;29;20438;-50
2023/05/19 00:38:24;;;;;;;16.87;15.70;;;11.30;1.00;;;;;;4841267;29;20410;-52
2023/05/19 00:40:50;;;;;;;15.83;14.90;;;11.20;1.00;;;;;;4840261;29;20464;-51
2023/05/19 00:43:15;;;;;;;15.73;14.73;;;11.10;1.00;;;;;;4841077;29;20189;-51
2023/05/19 00:45:41;;;;;;;15.50;14.50;;;11.10;1.00;;;;;;4840979;29;20513;-52
2023/05/19 00:48:07;;;;;;;15.10;14.30;;;11.00;1.00;;;;;;4840325;29;20209;-52
2023/05/19 00:50:32;;;;;;;15.50;14.50;;;10.90;1.00;;;;;;4839767;29;20711;-57
2023/05/19 00:52:58;;;;;;;14.00;13.20;;;10.80;1.00;;;;;;4840557;29;20191;-50
2023/05/19 00:55:28;;;;;;;15.17;14.20;;;10.70;1.00;;;;;;4837866;29;20185;-45
2023/05/19 00:57:55;;;;;;;14.40;13.50;;;10.60;1.00;;;;;;4840767;29;20220;-50
2023/05/19 01:00:21;;;;;;;14.23;13.40;;;10.60;22.30;;;;;;4824135;29;20437;-49
2023/05/19 01:02:49;;;;;;;14.00;13.30;;;10.50;1.00;;;;;;4834787;29;20497;-51
2023/05/19 01:05:15;;;;;;;14.10;13.30;;;10.40;93.30;;;;;;4841515;29;20434;-52
2023/05/19 01:07:41;;;;;;;14.10;13.20;;;10.40;99.90;;;;;;4840518;29;20493;-51
2023/05/19 01:10:08;;;;;;;13.47;12.70;;;10.30;99.90;;;;;;4840561;29;20490;-48
2023/05/19 01:12:34;;;;;;;14.93;13.77;;;10.30;99.90;;;;;;4840543;29;20665;-51
2023/05/19 01:15:01;;;;;;;14.20;13.37;;;10.20;1.00;;;;;;4841816;29;20425;-52
2023/05/19 01:17:45;;;;;;;15.23;13.70;;;10.20;1.00;;;;;;4839118;29;20449;-51
2023/05/19 01:20:34;;;;;;;13.83;13.13;;;10.10;1.00;;;;;;4816993;29;20437;-53
2023/05/19 01:23:03;;;;;;;14.37;13.47;;;10.10;1.00;;;;;;4840493;29;20453;-50
2023/05/19 01:25:47;;;;;;;14.00;13.20;;;10.00;22.60;;;;;;4839646;29;20556;-54
2023/05/19 01:28:50;;;;;;;14.53;13.67;;;10.00;99.90;;;;;;4840048;29;20493;-50
2023/05/19 01:31:22;;;;;;;14.13;13.33;;;9.90;1.00;;;;;;4838515;29;20959;-53
2023/05/19 01:33:50;;;;;;;13.97;13.07;;;9.90;99.90;;;;;;4840008;29;20421;-48
2023/05/19 01:36:18;;;;;;;14.00;13.20;;;9.80;99.90;;;;;;4839045;29;20445;-48
2023/05/19 01:38:44;;;;;;;13.60;12.90;;;9.80;99.90;;;;;;4840425;29;20538;-52
2023/05/19 01:41:11;;;;;;;13.37;12.60;;;9.70;99.90;;;;;;4839942;29;20434;-50
2023/05/19 01:43:37;;;;;;;14.77;13.87;;;9.70;1.00;;;;;;4839435;29;20455;-54
2023/05/19 01:46:05;;;;;;;14.00;13.20;;;9.60;1.00;;;;;;4839709;29;20444;-50
2023/05/19 01:48:32;;;;;;;13.87;13.07;;;9.60;1.00;;;;;;4839776;29;20423;-50
2023/05/19 01:50:58;;;;;;;13.23;12.53;;;9.60;1.00;;;;;;4835539;29;20822;-52
2023/05/19 01:53:23;;;;;;;14.67;13.80;;;9.50;99.90;;;;;;4839510;29;20455;-52
2023/05/19 01:55:55;;;;;;;14.23;13.13;;;9.40;1.00;;;;;;4838487;29;20442;-51
2023/05/19 01:58:23;;;;;;;14.00;13.30;;;9.40;99.90;;;;;;4835215;29;21209;-50
2023/05/19 02:00:52;;;;;;;13.80;13.00;;;9.50;99.90;;;;;;4839631;29;20473;-49
2023/05/19 02:03:45;;;;;;;14.30;13.40;;;9.40;99.90;;;;;;4839201;29;20464;-46
2023/05/19 02:06:31;;;;;;;13.70;12.90;;;9.40;1.00;;;;;;4838920;29;20447;-50
2023/05/19 02:09:19;;;;;;;14.10;13.30;;;9.40;44.20;;;;;;4839456;29;20429;-49
2023/05/19 02:11:53;;;;;;;14.27;13.37;;;9.30;99.90;;;;;;4839455;29;20979;-50
2023/05/19 02:14:49;;;;;;;14.93;13.93;;;9.30;1.00;;;;;;4840141;29;20454;-53
2023/05/19 02:17:16;;;;;;;14.53;13.60;;;9.20;99.90;;;;;;4835230;29;20459;-55
2023/05/19 02:19:42;;;;;;;15.00;13.80;;;9.20;99.90;;;;;;4839710;29;20434;-52
2023/05/19 02:22:08;;;;;;;14.73;13.83;;;9.10;1.00;;;;;;4838331;29;20432;-50
2023/05/19 02:24:33;;;;;;;14.97;13.97;;;9.10;71.60;;;;;;4827207;29;20558;-56
2023/05/19 02:26:59;;;;;;;14.40;13.40;;;9.00;82.90;;;;;;4838986;29;20733;-47
2023/05/19 02:29:24;;;;;;;14.00;13.10;;;9.00;99.90;;;;;;4838513;29;20185;-54
2023/05/19 02:31:50;;;;;;;14.30;13.40;;;9.00;99.90;;;;;;4839842;29;20258;-51
2023/05/19 02:34:16;;;;;;;13.60;12.70;;;9.00;99.90;;;;;;4839328;29;20654;-51
2023/05/19 02:36:41;;;;;;;14.73;13.73;;;9.00;99.90;;;;;;4839191;29;20538;-53
2023/05/19 02:39:09;;;;;;;14.73;13.83;;;9.00;99.90;;;;;;4839566;29;20196;-51
2023/05/19 02:41:35;;;;;;;15.07;13.97;;;9.00;99.90;;;;;;4839997;29;20177;-49
2023/05/19 02:44:01;;;;;;;14.80;13.90;;;9.00;99.90;;;;;;4837953;29;20442;-53
2023/05/19 02:46:26;;;;;;;14.80;13.80;;;9.00;99.90;;;;;;4838855;29;20568;-47
2023/05/19 02:48:52;;;;;;;15.57;14.57;;;9.00;99.90;;;;;;4836528;29;20648;-51
2023/05/19 02:51:17;;;;;;;15.57;14.47;;;9.00;99.90;;;;;;4836551;29;20190;-51
2023/05/19 02:53:43;;;;;;;15.53;14.53;;;9.00;99.90;;;;;;4837799;29;20720;-52
2023/05/19 02:56:08;;;;;;;16.17;15.23;;;8.90;99.90;;;;;;4841779;29;20264;-52
2023/05/19 02:58:34;;;;;;;15.50;14.60;;;9.00;99.90;;;;;;4838258;29;20297;-53
2023/05/19 03:01:00;;;;;;;14.70;13.83;;;9.00;99.90;;;;;;4839810;29;20186;-57
2023/05/19 03:03:25;;;;;;;15.43;14.43;;;9.00;99.90;;;;;;4838867;29;21085;-53
2023/05/19 03:05:52;;;;;;;15.07;14.07;;;8.90;99.90;;;;;;4838922;29;20192;-41
2023/05/19 03:08:18;;;;;;;15.67;14.67;;;8.90;99.90;;;;;;4839081;29;20228;-43
2023/05/19 03:10:45;;;;;;;15.90;14.67;;;8.90;99.90;;;;;;4840061;29;20418;-42
2023/05/19 03:13:11;;;;;;;14.93;13.93;;;8.80;99.90;;;;;;4837636;29;20456;-45
2023/05/19 03:15:36;;;;;;;15.60;14.43;;;8.80;99.90;;;;;;4839369;29;20431;-45
2023/05/19 03:18:02;;;;;;;15.07;14.07;;;8.80;99.90;;;;;;4838800;29;20216;-43
2023/05/19 03:20:29;;;;;;;15.30;14.30;;;8.70;99.90;;;;;;4838702;29;20962;-43
2023/05/19 03:22:55;;;;;;;15.33;14.33;;;8.70;99.90;;;;;;4837707;29;20181;-42
2023/05/19 03:25:21;;;;;;;15.63;14.43;;;8.70;99.90;;;;;;4820818;29;20641;-41
2023/05/19 03:27:46;;;;;;;14.27;13.47;;;8.70;99.90;;;;;;4838869;29;20502;-43
2023/05/19 03:30:12;;;;;;;13.80;13.00;;;8.70;99.90;;;;;;4838500;29;20426;-42
2023/05/19 03:32:38;;;;;;;14.67;13.77;;;8.60;99.90;;;;;;4837480;29;20188;-42
2023/05/19 03:35:05;;;;;;;15.40;14.20;;;8.60;99.90;;;;;;4838433;29;20522;-45
2023/05/19 03:37:33;;;;;;;14.47;13.50;;;8.60;99.90;;;;;;4823040;29;20489;-40
2023/05/19 03:39:59;;;;;;;14.33;13.40;;;8.60;99.90;;;;;;4838048;29;20442;-44
2023/05/19 03:42:25;;;;;;;14.40;13.50;;;8.60;99.90;;;;;;4838521;29;20936;-46
2023/05/19 03:44:51;;;;;;;14.67;13.67;;;8.60;99.90;;;;;;4838122;29;20441;-41
2023/05/19 03:47:16;;;;;;;14.27;13.37;;;8.60;99.90;;;;;;4838069;29;20580;-41
2023/05/19 03:49:42;;;;;;;14.50;13.50;;;8.70;99.90;;;;;;4848572;29;20187;-41
2023/05/19 03:52:08;;;;;;;15.30;14.30;;;8.70;99.90;;;;;;4845154;29;20184;-45
2023/05/19 03:54:34;;;;;;;14.40;13.50;;;8.80;99.90;;;;;;4841471;29;20265;-45
2023/05/19 03:57:01;;;;;;;14.77;13.87;;;8.80;99.90;;;;;;4844081;29;20496;-43
2023/05/19 03:59:26;;;;;;;13.53;12.70;;;8.80;99.90;;;;;;4842765;29;21238;-45
2023/05/19 04:01:52;;;;;;;14.07;13.17;;;8.90;99.90;;;;;;4840585;29;20516;-43
2023/05/19 04:04:18;;;;;;;13.57;12.67;;;9.00;99.90;;;;;;4842219;29;20434;-43
2023/05/19 04:06:44;;;;;;;13.33;12.40;;;9.00;99.90;;;;;;4841739;29;20218;-44
2023/05/19 04:09:13;;;;;;;13.50;12.63;;;9.10;99.90;;;;;;4841609;29;20179;-44
2023/05/19 04:11:40;;;;;;;13.80;13.00;;;9.10;99.90;;;;;;4841225;29;20455;-45
2023/05/19 04:14:06;;;;;;;13.20;12.30;;;9.20;99.90;;;;;;4841984;29;20468;-51
2023/05/19 04:16:32;;;;;;;14.30;13.40;;;9.20;99.90;;;;;;4842234;29;20436;-52
2023/05/19 04:18:58;;;;;;;12.33;11.53;;;9.20;99.90;;;;;;4840225;29;20936;-48
2023/05/19 04:21:23;;;;;;;14.83;13.83;;;9.30;99.90;;;;;;4829024;29;20434;-49
2023/05/19 04:23:49;;;;;;;14.57;13.37;;;9.20;99.90;;;;;;4846721;29;20182;-42
2023/05/19 04:26:15;;;;;;;14.60;13.60;;;9.20;99.90;;;;;;4841713;29;20238;-42
2023/05/19 04:28:43;;;;;;;15.07;13.90;;;9.30;99.90;;;;;;4840342;29;20205;-44
2023/05/19 04:31:11;;;;;;;14.43;13.33;;;9.30;99.90;;;;;;4839763;29;20186;-43
2023/05/19 04:33:37;;;;;;;14.20;13.03;;;9.30;99.90;;;;;;4841319;29;20921;-42
2023/05/19 04:36:07;;;;;;;13.67;12.80;;;9.40;99.90;;;;;;4841180;29;20432;-44
2023/05/19 04:38:38;;;;;;;14.10;13.20;;;9.50;99.90;;;;;;4840645;29;20800;-48
2023/05/19 04:41:09;;;;;;;15.23;14.23;;;9.60;99.90;;;;;;4840685;29;20967;-42
2023/05/19 04:43:35;;;;;;;14.70;13.70;;;9.60;99.90;;;;;;4842183;29;20894;-47
2023/05/19 04:46:04;;;;;;;13.90;13.10;;;9.80;99.90;;;;;;4840440;29;20476;-45
2023/05/19 04:48:30;;;;;;;13.70;12.80;;;9.80;99.90;;;;;;4840238;29;20518;-42
2023/05/19 04:50:56;;;;;;;13.37;12.57;;;10.00;99.90;;;;;;4840779;29;20917;-44
2023/05/19 04:53:24;;;;;;;13.37;12.57;;;10.00;99.90;;;;;;4840951;29;20567;-43
2023/05/19 04:55:50;;;;;;;14.10;13.30;;;10.00;99.90;;;;;;4841260;29;20220;-42
2023/05/19 04:58:15;;;;;;;13.63;12.73;;;10.20;99.90;;;;;;4839756;29;20477;-43
2023/05/19 05:00:41;;;;;;;14.40;13.40;;;10.30;99.90;;;;;;4840068;29;20437;-43
2023/05/19 05:03:07;;;;;;;15.87;14.80;;;10.30;99.90;;;;;;4848713;29;20197;-42
2023/05/19 05:05:34;;;;;;;12.67;11.97;;;10.30;99.90;;;;;;4837731;29;20629;-43
2023/05/19 05:07:59;;;;;;;13.53;12.73;;;10.30;99.90;;;;;;4841289;29;20536;-41
2023/05/19 05:10:25;;;;;;;15.20;14.20;;;10.10;99.90;;;;;;4840596;29;20426;-44
2023/05/19 05:12:51;;;;;;;13.87;13.07;;;10.10;99.90;;;;;;4840947;29;20933;-44
2023/05/19 05:15:17;;;;;;;14.20;13.10;;;10.20;99.90;;;;;;4840353;29;20442;-42
2023/05/19 05:17:43;;;;;;;13.70;12.70;;;10.30;99.90;;;;;;4841175;29;20422;-43
2023/05/19 05:20:11;;;;;;;14.87;13.87;;;10.40;99.90;;;;;;4839654;29;20478;-42
2023/05/19 05:22:40;;;;;;;13.23;12.33;;;10.50;99.90;;;;;;4838109;29;20560;-42
2023/05/19 05:25:07;;;;;;;14.57;13.57;;;10.60;99.90;;;;;;4840183;29;20461;-49
2023/05/19 05:27:32;;;;;;;15.43;14.30;;;10.70;99.90;;;;;;4840308;29;20482;-44
2023/05/19 05:29:58;;;;;;;14.97;14.07;;;10.70;99.90;;;;;;4840293;29;20949;-43
2023/05/19 05:32:24;;;;;;;15.57;14.43;;;10.80;99.90;;;;;;4842191;29;20272;-45
2023/05/19 05:34:50;;;;;;;14.13;13.23;;;10.90;99.90;;;;;;4847680;29;20648;-42
2023/05/19 05:37:15;;;;;;;14.40;13.50;;;11.00;99.90;;;;;;4838685;29;20201;-44
2023/05/19 05:39:41;;;;;;;14.47;13.47;;;11.10;99.90;;;;;;4839511;29;20497;-43
2023/05/19 05:42:10;;;;;;;13.90;13.00;;;11.20;99.90;;;;;;4833767;29;20216;-41
2023/05/19 05:44:36;;;;;;;14.60;13.70;;;11.40;99.90;;;;;;4833448;29;20189;-43
2023/05/19 05:47:02;;;;;;;14.83;13.83;;;11.50;99.90;;;;;;4843770;29;20484;-42
2023/05/19 05:49:28;;;;;;;14.80;13.60;;;11.60;99.90;;;;;;4847867;29;20184;-43
2023/05/19 05:51:54;;;;;;;15.57;14.67;;;11.70;99.90;;;;;;4845928;29;20446;-44
2023/05/19 05:54:21;;;;;;;14.90;13.93;;;11.80;99.90;;;;;;4853392;29;20204;-42
2023/05/19 05:56:47;;;;;;;15.03;14.03;;;11.90;99.90;;;;;;4857104;29;20180;-43
2023/05/19 05:59:14;;;;;;;15.70;14.40;;;12.10;99.90;;;;;;4839721;29;20430;-42
2023/05/19 06:01:40;;;;;;;15.60;14.60;;;12.20;99.90;;;;;;4836113;29;20458;-43
2023/05/19 06:04:06;;;;;;;13.87;13.07;;;12.30;99.90;;;;;;4830408;29;20445;-43
2023/05/19 06:06:32;;;;;;;13.60;12.80;;;12.50;99.90;;;;;;4829828;29;20550;-46
2023/05/19 06:08:57;;;;;;;15.20;14.20;;;12.70;99.90;;;;;;4831334;29;20599;-47
2023/05/19 06:11:23;;;;;;;14.30;13.40;;;12.80;99.90;;;;;;4830594;29;20200;-44
2023/05/19 06:13:49;;;;;;;15.20;14.23;;;13.10;99.90;;;;;;4829624;29;20189;-45
2023/05/19 06:16:15;;;;;;;14.57;13.67;;;13.20;99.90;;;;;;4829034;29;20446;-45
2023/05/19 06:18:40;;;;;;;14.00;13.20;;;13.40;99.90;;;;;;4830147;29;20566;-44
2023/05/19 06:21:08;;;;;;;14.20;13.40;;;13.50;99.90;;;;;;4827137;29;20197;-43
2023/05/19 06:23:35;;;;;;;14.43;13.53;;;13.50;99.90;;;;;;4826020;29;20201;-44
2023/05/19 06:26:01;;;;;;;14.60;13.70;;;13.70;99.60;;;;;;4830121;29;20429;-44
2023/05/19 06:28:26;;;;;;;14.43;13.63;;;13.70;99.30;;;;;;4830872;29;20470;-43
2023/05/19 06:30:52;;;;;;;13.50;12.70;;;13.80;99.00;;;;;;4830620;29;20197;-44
2023/05/19 06:33:18;;;;;;;13.57;12.70;;;13.90;98.90;;;;;;4828365;29;20249;-43
2023/05/19 06:35:43;;;;;;;14.50;13.60;;;14.10;99.00;;;;;;4826437;29;20198;-46
2023/05/19 06:38:09;;;;;;;13.87;13.07;;;14.20;98.30;;;;;;4829246;29;20197;-44
2023/05/19 06:40:35;;;;;;;14.10;13.20;;;14.30;97.90;;;;;;4830532;29;20201;-44
2023/05/19 06:43:02;;;;;;;14.50;13.60;;;14.40;97.60;;;;;;4829532;29;20205;-43
2023/05/19 06:45:27;;;;;;;14.17;13.27;;;14.50;96.80;;;;;;4828843;29;20485;-41
2023/05/19 06:47:53;;;;;;;13.40;12.70;;;14.70;96.90;;;;;;4828291;29;20578;-46
2023/05/19 06:50:19;;;;;;;15.13;14.23;;;14.80;96.30;;;;;;4829573;29;20189;-44
2023/05/19 06:52:45;;;;;;;13.50;12.70;;;14.80;95.60;;;;;;4826239;29;20189;-42
2023/05/19 06:55:11;;;;;;;13.60;12.80;;;15.00;95.60;;;;;;4828455;29;20193;-44
2023/05/19 06:57:37;;;;;;;14.07;13.27;;;15.00;95.30;;;;;;4827910;29;21006;-50
2023/05/19 07:00:05;;;;;;;13.60;12.90;;;15.10;95.00;;;;;;4826849;29;21022;-47
2023/05/19 07:02:31;;;;;;;13.10;12.27;;;15.20;94.80;;;;;;4828653;29;20279;-46
2023/05/19 07:04:56;;;;;;;13.60;12.80;;;15.40;95.00;;;;;;4828621;29;21364;-44
2023/05/19 07:07:22;;;;;;;13.80;12.90;;;15.40;93.80;;;;;;4827773;29;20220;-44
2023/05/19 07:09:48;;;;;;;14.93;14.03;;;15.40;94.00;;;;;;4824458;29;20633;-43
2023/05/19 07:12:13;;;;;;;13.77;12.87;;;15.50;93.50;;;;;;4827545;29;20200;-43
2023/05/19 07:14:39;;;;;;;14.17;13.20;;;15.60;93.60;;;;;;4826812;29;20208;-48
2023/05/19 07:17:04;;;;;;;13.47;12.67;;;15.70;93.30;;;;;;4827078;29;20221;-45
2023/05/19 07:19:30;;;;;;;16.07;15.07;;;15.70;93.00;;;;;;4826007;29;20748;-43
2023/05/19 07:21:58;;;;;;;13.83;12.93;;;15.60;92.50;;;;;;4827368;29;20193;-44
2023/05/19 07:24:23;;;;;;;15.23;14.00;;;15.40;92.40;;;;;;4829433;29;20250;-46
2023/05/19 07:26:49;;;;;;;14.53;13.60;;;15.20;92.60;;;;;;4828547;29;20491;-47
2023/05/19 07:29:15;;;;;;;13.93;13.03;;;15.30;92.80;;;;;;4832074;29;20276;-44
2023/05/19 07:31:40;;;;;;;13.37;12.57;;;15.40;92.40;;;;;;4833071;29;20193;-43
2023/05/19 07:34:06;;;;;;;13.10;12.40;;;15.60;93.20;;;;;;4832614;29;20203;-42
2023/05/19 07:36:32;;;;;;;13.77;12.87;;;15.80;92.30;;;;;;4831759;29;20289;-46
2023/05/19 07:38:58;;;;;;;13.57;12.77;;;15.90;92.50;;;;;;4832621;29;20190;-42
2023/05/19 07:41:25;;;;;;;13.90;13.20;;;16.00;92.00;;;;;;4832883;29;20458;-45
2023/05/19 07:43:50;;;;;;;13.50;12.70;;;16.00;91.00;;;;;;4832701;29;20543;-43
2023/05/19 07:46:16;;;;;;;13.90;13.10;;;16.10;90.80;;;;;;4832006;29;20452;-43
2023/05/19 07:48:41;;;;;;;13.93;13.13;;;16.10;90.70;;;;;;4831638;29;20189;-43
2023/05/19 07:51:09;;;;;;;13.50;12.70;;;16.10;90.80;;;;;;4832498;29;20313;-48
2023/05/19 07:53:35;;;;;;;13.50;12.70;;;16.30;90.60;;;;;;4832422;29;20200;-46
2023/05/19 07:56:01;;;;;;;13.53;12.63;;;16.30;90.10;;;;;;4831768;29;20441;-44
2023/05/19 07:58:27;;;;;;;12.13;11.53;;;16.40;90.30;;;;;;4832129;29;20513;-45
2023/05/19 08:00:55;;;;;;;12.90;12.20;;;16.60;89.90;;;;;;4832264;29;20441;-44
2023/05/19 08:03:22;;;;;;;11.73;11.13;;;16.60;87.30;;;;;;4832776;29;20279;-46
2023/05/19 08:05:47;;;;;;;12.90;12.20;;;16.80;87.40;;;;;;4832507;29;20433;-44
2023/05/19 08:08:15;;;;;;;11.17;10.40;;;16.80;86.50;;;;;;4832469;29;20462;-46
2023/05/19 08:10:41;;;;;;;12.37;11.67;;;17.00;84.80;;;;;;4833073;29;20189;-43
2023/05/19 08:13:07;;;;;;;11.67;11.07;;;17.10;83.40;;;;;;4802681;29;20494;-43
2023/05/19 08:15:32;;;;;;;12.80;12.00;;;17.10;83.70;;;;;;4833105;29;20917;-46
2023/05/19 08:17:58;;;;;;;12.17;11.43;;;17.20;84.20;;;;;;4832455;29;20205;-49
2023/05/19 08:20:23;;;;;;;11.57;10.87;;;17.30;83.40;;;;;;4833118;29;20201;-43
2023/05/19 08:22:49;;;;;;;10.97;10.37;;;17.40;81.30;;;;;;4832872;29;20566;-43
2023/05/19 08:25:15;;;;;;;11.53;10.83;;;17.50;78.40;;;;;;4832909;29;20268;-43
2023/05/19 08:27:40;;;;;;;10.73;10.23;;;17.60;77.50;;;;;;4832048;29;20256;-45
2023/05/19 08:30:11;;;;;;;11.63;10.93;;;17.70;78.20;;;;;;4832739;29;21221;-46
2023/05/19 08:32:36;;;;;;;11.87;11.00;;;18.00;78.80;;;;;;4832836;29;20642;-47
2023/05/19 08:35:02;;;;;;;12.33;11.60;;;18.20;79.30;;;;;;4831341;29;20450;-44
2023/05/19 08:37:28;;;;;;;12.37;11.50;;;18.20;76.90;;;;;;4832921;29;20440;-42
2023/05/19 08:39:54;;;;;;;12.17;11.47;;;18.30;77.50;;;;;;4833126;29;20426;-43
2023/05/19 08:42:19;;;;;;;12.70;12.00;;;18.40;78.00;;;;;;4832441;29;20251;-44
2023/05/19 08:44:45;;;;;;;12.67;12.07;;;18.50;77.70;;;;;;4831786;29;20300;-45
2023/05/19 08:47:12;;;;;;;12.20;11.53;;;18.70;76.70;;;;;;4832378;29;20309;-47
2023/05/19 08:49:46;;;;;;;12.27;11.40;;;19.00;75.60;;;;;;4832341;29;20203;-46
2023/05/19 08:52:44;;;;;;;12.40;11.70;;;19.10;74.50;;;;;;4832425;29;20933;-43
2023/05/19 08:55:24;;;;;;;12.50;11.80;;;19.30;73.90;;;;;;4831385;29;20921;-44
2023/05/19 08:57:51;;;;;;;11.83;11.13;;;19.60;71.90;;;;;;4832593;29;20453;-46
2023/05/19 09:00:18;;;;;;;13.40;12.60;;;19.80;69.30;;;;;;4832194;29;20893;-43
2023/05/19 09:02:47;;;;;;;11.33;10.70;;;20.10;69.20;;;;;;4832001;29;20461;-45
2023/05/19 09:05:14;;;;;;;11.80;11.10;;;20.30;67.40;;;;;;4831376;29;20485;-45
2023/05/19 09:07:42;;;;;;;12.33;11.67;;;20.60;67.40;;;;;;4815671;29;20481;-45
2023/05/19 09:10:08;;;;;;;11.50;10.90;;;21.20;65.40;;;;;;4832454;29;20486;-44
2023/05/19 09:12:33;;;;;;;11.00;10.50;;;21.60;61.10;;;;;;4832110;29;20434;-45
2023/05/19 09:15:01;;;;;;;11.03;10.50;;;21.80;59.60;;;;;;4831499;29;20438;-46
2023/05/19 09:17:26;;;;;;;10.80;10.30;;;21.80;56.80;;;;;;4832007;29;20216;-44
2023/05/19 09:19:52;;;;;;;11.80;11.00;;;21.70;99.90;;;;;;4831679;29;20438;-46
2023/05/19 09:22:19;;;;;;;11.63;11.03;;;21.60;99.90;;;;;;4831821;29;20223;-47
2023/05/19 09:24:46;;;;;;;10.27;9.73;;;21.70;99.90;;;;;;4830871;29;20272;-45
2023/05/19 09:27:15;;;;;;;11.03;10.43;;;21.70;99.90;;;;;;4831430;29;20513;-44
2023/05/19 09:29:41;;;;;;;10.77;10.27;;;21.70;99.90;;;;;;4831655;29;20430;-48
2023/05/19 09:32:07;;;;;;;11.50;10.90;;;21.70;99.90;;;;;;4832018;29;20418;-42
2023/05/19 09:34:33;;;;;;;11.57;10.80;;;21.80;99.90;;;;;;4831025;29;20445;-43
2023/05/19 09:36:58;;;;;;;10.80;10.30;;;21.60;99.90;;;;;;4831679;29;20926;-43
2023/05/19 09:39:24;;;;;;;11.90;11.20;;;21.80;99.90;;;;;;4831916;29;20201;-45
2023/05/19 09:41:54;;;;;;;12.13;11.33;;;22.00;99.90;;;;;;4831402;29;20732;-44
2023/05/19 09:44:22;;;;;;;10.07;9.47;;;22.30;99.90;;;;;;4831477;29;20478;-46
2023/05/19 09:46:52;;;;;;;11.30;10.70;;;22.80;99.90;;;;;;4829638;29;20512;-46
2023/05/19 09:49:25;;;;;;;9.63;9.13;;;23.20;99.90;;;;;;4831752;29;20421;-46
2023/05/19 09:51:55;;;;;;;11.53;11.03;;;23.50;99.90;;;;;;4831093;29;20430;-44
2023/05/19 09:54:24;;;;;;;12.37;11.73;;;23.80;99.90;;;;;;4831474;29;21360;-43
2023/05/19 09:56:58;;;;;;;11.90;11.30;;;23.70;99.90;;;;;;4830721;29;20511;-48
2023/05/19 09:59:25;;;;;;;10.63;10.13;;;23.90;99.90;;;;;;4831694;29;20434;-47
2023/05/19 10:01:55;;;;;;;11.90;11.20;;;23.90;99.90;;;;;;4831379;29;20839;-48
2023/05/19 10:04:22;;;;;;;10.87;10.37;;;24.10;99.90;;;;;;4831442;29;20437;-44
2023/05/19 10:06:52;;;;;;;11.23;10.63;;;24.40;99.90;;;;;;4830852;29;20477;-43
2023/05/19 10:09:27;;;;;;;9.90;9.30;;;24.70;99.90;;;;;;4830821;29;20422;-45
2023/05/19 10:11:57;;;;;;;10.97;10.37;;;24.90;99.90;;;;;;4830671;29;20445;-44
2023/05/19 10:14:28;;;;;;;11.03;10.53;;;25.00;99.90;;;;;;4830833;29;20564;-49
2023/05/19 10:16:56;;;;;;;11.77;11.13;;;25.50;99.90;;;;;;4830921;29;20993;-46
2023/05/19 10:19:23;;;;;;;12.63;11.93;;;25.70;99.90;;;;;;4830923;29;20449;-49
2023/05/19 10:21:49;;;;;;;11.73;11.13;;;26.10;99.90;;;;;;4830399;29;20438;-44
2023/05/19 10:24:16;;;;;;;11.10;10.60;;;26.00;99.90;;;;;;4830333;29;20648;-48
2023/05/19 10:27:02;;;;;;;11.20;10.67;;;25.30;99.90;;;;;;4830475;29;20585;-43
2023/05/19 10:29:30;;;;;;;11.20;10.57;;;25.20;99.90;;;;;;4830629;29;20953;-48
2023/05/19 10:32:01;;;;;;;11.87;11.27;;;25.10;99.90;;;;;;4830709;29;20418;-44
2023/05/19 10:35:07;;;;;;;11.30;10.70;;;25.20;99.90;;;;;;4830848;29;20506;-48
2023/05/19 10:37:52;;;;;;;11.40;10.90;;;26.00;99.90;;;;;;4829787;29;20526;-46
2023/05/19 10:40:27;;;;;;;12.10;11.50;;;26.50;99.90;;;;;;4830280;29;21037;-47
2023/05/19 10:43:12;;;;;;;11.40;10.90;;;27.00;99.90;;;;;;4830639;29;20907;-44
2023/05/19 10:45:50;;;;;;;11.93;11.23;;;27.30;99.90;;;;;;4829938;29;20506;-45
2023/05/19 10:48:19;;;;;;;11.90;11.30;;;27.60;99.90;;;;;;4830671;29;20485;-44
2023/05/19 10:50:45;;;;;;;11.37;10.87;;;27.80;99.90;;;;;;4830401;29;20434;-45
2023/05/19 10:53:16;;;;;;;11.57;11.03;;;27.60;99.90;;;;;;4829549;29;20426;-51
2023/05/19 10:55:52;;;;;;;12.17;11.57;;;28.00;99.90;;;;;;4829390;29;20465;-43
2023/05/19 10:58:38;;;;;;;11.10;10.60;;;28.30;99.90;;;;;;4831024;29;20516;-44
2023/05/19 11:01:15;;;;;;;13.00;12.30;;;27.90;99.90;;;;;;4830531;29;20513;-43
2023/05/19 11:03:52;;;;;;;12.90;12.30;;;28.20;99.90;;;;;;4829141;29;21024;-45
2023/05/19 11:06:18;;;;;;;12.00;11.47;;;28.20;99.90;;;;;;4828164;29;20465;-49
2023/05/19 11:08:43;;;;;;;13.27;12.37;;;28.60;99.90;;;;;;4830058;29;20477;-45
2023/05/19 11:11:15;;;;;;;12.70;12.00;;;29.10;99.90;;;;;;4830376;29;20197;-45
2023/05/19 11:13:46;;;;;;;12.30;11.70;;;29.50;99.90;;;;;;4830117;29;20787;-43
2023/05/19 11:16:12;;;;;;;12.60;11.80;;;29.40;99.90;;;;;;4830722;29;20460;-49
2023/05/19 11:18:38;;;;;;;11.27;10.77;;;28.90;99.90;;;;;;4829759;29;20930;-48
2023/05/19 11:21:04;;;;;;;12.03;11.33;;;28.90;99.90;;;;;;4830010;29;20469;-52
2023/05/19 11:23:32;;;;;;;12.43;11.73;;;28.80;99.90;;;;;;4829836;29;20197;-49
2023/05/19 11:26:01;;;;;;;12.00;11.50;;;29.10;99.90;;;;;;4829939;29;20207;-49
2023/05/19 11:28:28;;;;;;;11.77;11.17;;;29.00;99.90;;;;;;4829856;29;21424;-48
2023/05/19 11:30:56;;;;;;;12.00;11.40;;;29.00;99.90;;;;;;4830130;29;21107;-52
2023/05/19 11:33:25;;;;;;;12.73;12.10;;;28.40;99.90;;;;;;4830417;29;20454;-50
2023/05/19 11:35:58;;;;;;;12.50;11.70;;;28.00;99.90;;;;;;4829314;29;20512;-52
2023/05/19 11:38:25;;;;;;;12.10;11.50;;;27.70;99.90;;;;;;4828252;29;20448;-51
2023/05/19 11:40:54;;;;;;;12.30;11.43;;;27.90;99.90;;;;;;4830287;29;20438;-53
2023/05/19 11:43:26;;;;;;;12.00;11.40;;;28.40;99.90;;;;;;4830162;29;20438;-54
2023/05/19 11:45:53;;;;;;;12.87;12.20;;;28.70;99.90;;;;;;4829853;29;20546;-52
2023/05/19 11:48:23;;;;;;;12.23;11.63;;;28.80;99.90;;;;;;4830156;29;20478;-54
2023/05/19 11:50:49;;;;;;;12.40;11.80;;;28.80;99.90;;;;;;4830292;29;20426;-45
2023/05/19 11:53:15;;;;;;;11.83;11.33;;;28.70;99.90;;;;;;4828805;29;20457;-53
2023/05/19 11:55:44;;;;;;;12.57;11.87;;;28.80;99.90;;;;;;4829858;29;20766;-53
2023/05/19 11:58:11;;;;;;;11.83;11.23;;;28.70;99.90;;;;;;4830080;29;20951;-50
2023/05/19 12:00:44;;;;;;;12.20;11.60;;;29.00;99.90;;;;;;4829185;29;20540;-50
2023/05/19 12:03:10;;;;;;;12.93;12.30;;;29.10;99.90;;;;;;4830133;29;20564;-44
2023/05/19 12:05:38;;;;;;;11.30;10.70;;;29.10;99.90;;;;;;4805427;29;21168;-44
2023/05/19 12:08:05;;;;;;;12.20;11.57;;;29.00;99.90;;;;;;4830046;29;20220;-47
2023/05/19 12:10:32;;;;;;;11.93;11.37;;;29.10;99.90;;;;;;4830695;29;20429;-45
2023/05/19 12:12:58;;;;;;;10.90;10.43;;;29.30;99.90;;;;;;4833502;29;20830;-47
2023/05/19 12:15:24;;;;;;;12.80;11.63;;;29.50;99.90;;;;;;4833548;29;20548;-42
2023/05/19 12:17:55;;;;;;;12.20;11.60;;;29.20;99.90;;;;;;4832404;29;20519;-43
2023/05/19 12:20:22;;;;;;;12.20;11.70;;;28.80;99.90;;;;;;4833437;29;20644;-43
2023/05/19 12:22:48;;;;;;;12.83;12.23;;;28.50;99.90;;;;;;4833138;29;20425;-43
2023/05/19 12:25:17;;;;;;;12.33;11.73;;;28.00;99.90;;;;;;4832852;29;20453;-44
2023/05/19 12:27:43;;;;;;;13.00;12.37;;;27.80;99.90;;;;;;4832958;29;20523;-45
2023/05/19 12:30:11;;;;;;;11.33;10.83;;;27.70;99.90;;;;;;4832930;29;20426;-46
2023/05/19 12:32:37;;;;;;;11.40;10.70;;;27.80;99.90;;;;;;4832745;29;20426;-48
2023/05/19 12:35:04;;;;;;;12.87;12.27;;;27.80;99.90;;;;;;4832902;29;20518;-45